Time;durP1;ratioP1;P1;durP2;ratioP2;P2;SDS_P1;SDS_P2;PMS_P1;PMS_P2;Temp;Humidity;BMP_temperature;BMP_pressure;BME280_temperature;BME280_humidity;BME280_pressure;Samples;Min_cycle;Max_cycle;Signal;HPM_P1;HPM_P2
2022/05/07 00:00:41;;;;;;;12.53;9.37;;;;;;;;;;5084618;28;20478;-86
2022/05/07 00:03:07;;;;;;;17.93;9.77;;;13.60;1.00;;;;;;5085993;28;20451;-86
2022/05/07 00:05:34;;;;;;;12.33;9.23;;;13.70;1.00;;;;;;5085667;28;20478;-85
2022/05/07 00:08:01;;;;;;;10.50;9.40;;;13.70;1.00;;;;;;5083378;28;20442;-86
2022/05/07 00:10:28;;;;;;;10.50;9.43;;;13.60;99.90;;;;;;5082572;28;20536;-86
2022/05/07 00:12:56;;;;;;;9.53;8.60;;;13.50;99.90;;;;;;5081615;28;20446;-86
2022/05/07 00:15:23;;;;;;;10.60;9.40;;;13.50;99.90;;;;;;5082038;28;20465;-85
2022/05/07 00:20:31;;;;;;;19.33;10.10;;;13.40;99.90;;;;;;5090180;28;20498;-87
2022/05/07 00:22:58;;;;;;;26.00;20.13;;;;;;;;;;5093900;28;20445;-86
2022/05/07 00:25:25;;;;;;;12.23;10.53;;;13.30;1.00;;;;;;5098029;28;20465;-86
2022/05/07 00:27:52;;;;;;;13.10;11.80;;;13.20;1.00;;;;;;5096586;28;20443;-86
2022/05/07 00:30:20;;;;;;;11.83;9.90;;;13.60;1.00;;;;;;5088858;28;20866;-87
2022/05/07 00:32:47;;;;;;;9.60;8.60;;;;;;;;;;5085437;28;20450;-87
2022/05/07 00:35:14;;;;;;;10.33;8.83;;;13.30;1.00;;;;;;5084005;28;20463;-86
2022/05/07 00:37:40;;;;;;;10.40;9.00;;;13.30;1.00;;;;;;5082421;28;20445;-87
2022/05/07 00:40:08;;;;;;;11.30;7.60;;;13.30;99.90;;;;;;5086381;28;20623;-87
2022/05/07 00:42:35;;;;;;;9.93;7.93;;;13.30;99.90;;;;;;5084456;28;20442;-85
2022/05/07 00:45:02;;;;;;;10.80;7.20;;;;;;;;;;5082981;28;20516;-85
2022/05/07 00:47:32;;;;;;;8.00;7.20;;;13.40;1.00;;;;;;5082595;28;20518;-85
2022/05/07 00:52:42;;;;;;;7.83;7.03;;;13.50;1.00;;;;;;5080149;28;20856;-86
2022/05/07 00:55:10;;;;;;;11.20;9.40;;;13.60;99.90;;;;;;5083470;28;20508;-86
2022/05/07 00:57:38;;;;;;;9.20;7.43;;;;;;;;;;5093566;28;20524;-85
2022/05/07 01:00:06;;;;;;;9.63;8.10;;;14.00;99.90;;;;;;5098559;28;20397;-85
2022/05/07 01:02:36;;;;;;;8.77;7.90;;;13.70;99.90;;;;;;5094788;28;20554;-86
2022/05/07 01:05:03;;;;;;;11.93;9.20;;;13.70;99.90;;;;;;5095409;28;20451;-85
2022/05/07 01:07:33;;;;;;;11.30;9.70;;;13.70;99.90;;;;;;5078575;28;20449;-85
2022/05/07 01:10:00;;;;;;;11.37;8.60;;;13.70;99.90;;;;;;5077649;28;20902;-85
2022/05/07 01:12:27;;;;;;;9.37;8.40;;;13.60;99.90;;;;;;5077669;28;20772;-85
2022/05/07 01:14:56;;;;;;;9.37;8.47;;;13.60;99.90;;;;;;5076232;28;20466;-86
2022/05/07 01:17:23;;;;;;;10.63;8.37;;;13.60;99.90;;;;;;5076626;28;20449;-85
2022/05/07 01:19:53;;;;;;;8.90;8.00;;;13.70;99.90;;;;;;5077564;28;20474;-84
2022/05/07 01:22:22;;;;;;;10.43;7.63;;;13.60;1.00;;;;;;5080479;28;20430;-86
2022/05/07 01:27:16;;;;;;;8.00;6.90;;;13.60;99.90;;;;;;5132517;28;20465;-83
2022/05/07 01:29:43;;;;;;;8.70;7.50;;;;;;;;;;5134618;28;20439;-83
2022/05/07 01:32:10;;;;;;;8.33;7.33;;;;;;;;;;5137556;28;20476;-83
2022/05/07 01:34:37;;;;;;;9.60;6.53;;;13.90;1.00;;;;;;5136548;28;20470;-83
2022/05/07 01:37:04;;;;;;;9.63;8.63;;;13.60;99.90;;;;;;5114051;28;20490;-84
2022/05/07 01:39:32;;;;;;;8.73;7.77;;;13.60;99.90;;;;;;5109669;28;20442;-84
2022/05/07 01:41:59;;;;;;;8.87;8.00;;;13.50;1.00;;;;;;5110455;28;20447;-84
2022/05/07 01:44:25;;;;;;;9.07;7.73;;;13.60;99.90;;;;;;5110491;28;20454;-84
2022/05/07 01:49:36;;;;;;;10.70;7.03;;;13.60;99.90;;;;;;5110116;28;20410;-84
2022/05/07 01:52:03;;;;;;;8.83;7.63;;;13.60;99.90;;;;;;5109714;28;20822;-84
2022/05/07 01:54:30;;;;;;;7.60;6.90;;;;;;;;;;5109838;28;20479;-84
2022/05/07 01:56:58;;;;;;;9.60;7.40;;;13.60;99.90;;;;;;5113647;28;20468;-84
2022/05/07 01:59:24;;;;;;;8.40;7.50;;;13.60;99.90;;;;;;5114283;28;20429;-84
2022/05/07 02:01:52;;;;;;;8.10;7.13;;;13.60;99.90;;;;;;5112410;28;20440;-84
2022/05/07 02:04:18;;;;;;;7.40;6.70;;;13.60;99.90;;;;;;5109505;28;20480;-84
2022/05/07 02:06:45;;;;;;;7.83;6.60;;;13.60;99.90;;;;;;5113414;28;20454;-84
2022/05/07 02:09:11;;;;;;;7.17;6.47;;;13.60;99.90;;;;;;5098835;28;20493;-85
2022/05/07 02:11:38;;;;;;;8.20;6.77;;;13.60;99.90;;;;;;5101669;28;20481;-84
2022/05/07 02:14:06;;;;;;;11.07;7.53;;;13.60;99.90;;;;;;5102852;28;20469;-84
2022/05/07 02:16:33;;;;;;;7.03;6.33;;;13.30;99.90;;;;;;5104024;28;20470;-84
2022/05/07 02:18:59;;;;;;;6.97;6.30;;;13.50;99.90;;;;;;5106186;28;20446;-84
2022/05/07 02:21:26;;;;;;;7.67;7.03;;;13.50;99.90;;;;;;5107227;28;20440;-85
2022/05/07 02:23:52;;;;;;;6.67;6.00;;;13.50;99.90;;;;;;5107450;28;20450;-84
2022/05/07 02:26:19;;;;;;;7.50;6.80;;;13.40;99.90;;;;;;5107163;28;20527;-84
2022/05/07 02:28:45;;;;;;;7.10;6.40;;;13.50;99.90;;;;;;5107875;28;20449;-84
2022/05/07 02:31:13;;;;;;;6.83;5.70;;;13.50;99.90;;;;;;5107919;28;20472;-84
2022/05/07 02:33:40;;;;;;;6.63;6.03;;;;;;;;;;5109104;28;20452;-84
2022/05/07 02:36:07;;;;;;;7.73;5.50;;;;;;;;;;5113586;28;20464;-83
2022/05/07 02:38:36;;;;;;;6.60;5.80;;;13.50;99.90;;;;;;5117587;28;20447;-83
2022/05/07 02:43:47;;;;;;;7.30;5.77;;;13.40;99.90;;;;;;5116176;28;20388;-83
2022/05/07 02:46:15;;;;;;;6.90;6.30;;;13.40;99.90;;;;;;5115872;28;20467;-83
2022/05/07 02:48:44;;;;;;;9.57;6.87;;;13.30;99.90;;;;;;5116536;28;20432;-84
2022/05/07 02:51:11;;;;;;;6.70;6.10;;;;;;;;;;5115172;28;20453;-84
2022/05/07 02:53:38;;;;;;;6.80;6.20;;;13.40;99.90;;;;;;5113871;28;20438;-84
2022/05/07 02:56:05;;;;;;;8.17;6.10;;;13.50;99.90;;;;;;5113380;28;20466;-84
2022/05/07 02:58:31;;;;;;;10.20;7.40;;;13.40;99.90;;;;;;5113288;28;20440;-84
2022/05/07 03:00:58;;;;;;;7.57;6.77;;;13.40;99.90;;;;;;5113292;28;20445;-84
2022/05/07 03:03:26;;;;;;;7.40;5.90;;;13.40;99.90;;;;;;5114750;28;20479;-83
2022/05/07 03:05:55;;;;;;;8.27;6.30;;;13.40;99.90;;;;;;5118347;28;20534;-83
2022/05/07 03:08:23;;;;;;;7.03;6.30;;;;;;;;;;5103913;28;20472;-83
2022/05/07 03:10:50;;;;;;;6.37;5.77;;;;;;;;;;5104273;28;20447;-83
2022/05/07 03:13:17;;;;;;;7.10;6.40;;;13.30;99.90;;;;;;5112655;28;20541;-84
2022/05/07 03:15:43;;;;;;;6.23;5.57;;;;;;;;;;5112469;28;20471;-84
2022/05/07 03:18:11;;;;;;;10.97;6.00;;;13.30;1.00;;;;;;5112985;28;20457;-84
2022/05/07 03:20:40;;;;;;;8.00;5.93;;;13.30;1.00;;;;;;5111868;28;20482;-84
2022/05/07 03:23:06;;;;;;;8.03;5.80;;;13.30;1.00;;;;;;5112945;28;20462;-84
2022/05/07 03:25:33;;;;;;;6.67;5.83;;;13.30;1.00;;;;;;5115016;28;20481;-84
2022/05/07 03:27:59;;;;;;;7.83;6.33;;;13.40;99.90;;;;;;5118007;28;20446;-84
2022/05/07 03:30:26;;;;;;;7.27;6.67;;;;;;;;;;5117489;28;20426;-84
2022/05/07 03:32:53;;;;;;;7.20;6.50;;;;;;;;;;5117164;28;20490;-84
2022/05/07 03:35:20;;;;;;;9.73;6.37;;;13.40;1.00;;;;;;5114148;28;20463;-84
2022/05/07 03:37:48;;;;;;;6.70;6.10;;;13.40;1.00;;;;;;5110014;28;20456;-84
2022/05/07 03:40:14;;;;;;;6.73;5.70;;;13.40;1.00;;;;;;5105978;28;20474;-83
2022/05/07 03:42:43;;;;;;;10.27;6.80;;;13.40;1.00;;;;;;5107246;28;20472;-83
2022/05/07 03:45:10;;;;;;;6.30;5.70;;;13.40;1.00;;;;;;5108122;28;20492;-84
2022/05/07 03:47:37;;;;;;;6.50;5.40;;;;;;;;;;5109110;28;20449;-84
2022/05/07 03:50:04;;;;;;;6.43;5.50;;;13.40;1.00;;;;;;5109375;28;20505;-84
2022/05/07 03:55:27;;;;;;;7.07;6.10;;;13.70;1.00;;;;;;5068800;28;20217;-83
2022/05/07 03:57:55;;;;;;;7.87;5.70;;;13.40;1.00;;;;;;5101225;28;20771;-84
2022/05/07 04:00:22;;;;;;;7.03;5.57;;;13.50;99.90;;;;;;5111742;28;20442;-83
2022/05/07 04:02:49;;;;;;;9.77;6.23;;;;;;;;;;5111022;28;20430;-83
2022/05/07 04:05:15;;;;;;;6.97;6.20;;;;;;;;;;5113239;28;20462;-85
2022/05/07 04:07:42;;;;;;;6.77;6.10;;;13.50;99.90;;;;;;5107513;28;20516;-84
2022/05/07 04:10:09;;;;;;;9.83;4.97;;;13.50;99.90;;;;;;5101670;28;20416;-84
2022/05/07 04:12:37;;;;;;;7.45;6.55;;;13.40;99.90;;;;;;5108280;28;20435;-84
2022/05/07 04:15:04;;;;;;;6.27;5.77;;;13.50;1.00;;;;;;5109919;28;20672;-85
2022/05/07 04:17:31;;;;;;;7.40;5.93;;;13.40;1.00;;;;;;5110690;28;20444;-85
2022/05/07 04:19:57;;;;;;;7.80;7.00;;;;;;;;;;5110577;28;20475;-85
2022/05/07 04:22:24;;;;;;;8.97;5.90;;;;;;;;;;5109345;28;20429;-85
2022/05/07 04:24:51;;;;;;;7.33;6.63;;;13.30;1.00;;;;;;5111361;28;20471;-84
2022/05/07 04:27:18;;;;;;;12.70;9.67;;;13.40;1.00;;;;;;5109026;28;20444;-84
2022/05/07 04:29:46;;;;;;;7.50;6.63;;;13.40;1.00;;;;;;5110167;28;20424;-84
2022/05/07 04:32:12;;;;;;;9.70;5.90;;;13.40;1.00;;;;;;5109162;28;20547;-84
2022/05/07 04:34:39;;;;;;;6.00;5.20;;;13.40;1.00;;;;;;5116168;28;20472;-84
2022/05/07 04:37:06;;;;;;;14.40;6.47;;;13.50;99.90;;;;;;5118051;28;20472;-84
2022/05/07 04:39:34;;;;;;;6.20;5.60;;;13.50;99.90;;;;;;5117384;28;20452;-83
2022/05/07 04:42:00;;;;;;;7.30;5.47;;;13.50;99.90;;;;;;5115452;28;20470;-84
2022/05/07 04:44:27;;;;;;;6.00;5.40;;;13.50;99.90;;;;;;5116157;28;20429;-84
2022/05/07 04:46:55;;;;;;;8.23;5.97;;;13.50;99.90;;;;;;5114818;28;20976;-84
2022/05/07 04:49:22;;;;;;;7.87;5.43;;;13.50;99.90;;;;;;5109183;28;20449;-84
2022/05/07 04:51:50;;;;;;;7.20;6.30;;;13.50;99.90;;;;;;5108473;28;20452;-84
2022/05/07 04:54:17;;;;;;;6.07;5.60;;;13.50;99.90;;;;;;5109056;28;20498;-84
2022/05/07 04:56:44;;;;;;;8.20;6.43;;;13.50;99.90;;;;;;5111181;28;20475;-84
2022/05/07 04:59:10;;;;;;;6.63;5.93;;;13.50;99.90;;;;;;5112238;28;20469;-84
2022/05/07 05:01:37;;;;;;;6.50;5.67;;;13.60;1.00;;;;;;5111501;28;20419;-84
2022/05/07 05:04:05;;;;;;;8.33;5.67;;;13.70;99.90;;;;;;5111211;28;20442;-84
2022/05/07 05:06:31;;;;;;;7.30;6.60;;;13.80;99.90;;;;;;5112868;28;20489;-84
2022/05/07 05:08:58;;;;;;;7.10;5.97;;;;;;;;;;5099475;28;20483;-84
2022/05/07 05:11:26;;;;;;;7.30;6.20;;;;;;;;;;5102977;28;20451;-84
2022/05/07 05:13:53;;;;;;;7.60;6.90;;;;;;;;;;5105253;28;20552;-84
2022/05/07 05:16:19;;;;;;;12.73;9.50;;;14.10;99.90;;;;;;5107734;28;20464;-84
2022/05/07 05:18:46;;;;;;;7.50;6.63;;;;;;;;;;5117626;28;20449;-84
2022/05/07 05:21:14;;;;;;;6.00;5.50;;;14.30;99.90;;;;;;5119184;28;20496;-84
2022/05/07 05:23:40;;;;;;;8.87;6.50;;;14.20;93.50;;;;;;5119318;28;20438;-84
2022/05/07 05:26:07;;;;;;;9.90;8.33;;;14.20;80.90;;;;;;5118334;28;20475;-84
2022/05/07 05:28:35;;;;;;;8.07;7.27;;;14.20;89.70;;;;;;5114729;28;20450;-83
2022/05/07 05:31:02;;;;;;;8.03;7.23;;;;;;;;;;5114335;28;20425;-84
2022/05/07 05:33:29;;;;;;;9.80;7.40;;;14.40;1.00;;;;;;5112867;28;20481;-84
2022/05/07 05:35:56;;;;;;;9.07;7.40;;;;;;;;;;5114740;28;20481;-83
2022/05/07 05:38:24;;;;;;;10.23;6.57;;;14.60;99.90;;;;;;5113598;28;20432;-85
2022/05/07 05:40:51;;;;;;;9.40;6.80;;;14.60;1.00;;;;;;5114041;28;20497;-84
2022/05/07 05:43:18;;;;;;;7.37;6.60;;;14.70;1.00;;;;;;5114826;28;20428;-84
2022/05/07 05:45:45;;;;;;;7.90;6.70;;;14.80;1.00;;;;;;5114114;28;20466;-83
2022/05/07 05:48:11;;;;;;;6.97;6.37;;;14.80;1.00;;;;;;5111818;28;20450;-84
2022/05/07 05:50:39;;;;;;;10.70;6.17;;;;;;;;;;5110866;28;20476;-85
2022/05/07 05:53:07;;;;;;;7.87;6.37;;;;;;;;;;5110519;28;20536;-83
2022/05/07 05:55:35;;;;;;;10.60;9.47;;;15.10;1.00;;;;;;5115945;28;20539;-83
2022/05/07 05:58:02;;;;;;;7.37;6.67;;;;;;;;;;5115882;28;20474;-84
2022/05/07 06:00:29;;;;;;;5.30;4.80;;;15.40;1.00;;;;;;5116464;28;20443;-85
2022/05/07 06:02:56;;;;;;;4.70;4.30;;;;;;;;;;5115993;28;20435;-84
2022/05/07 06:05:22;;;;;;;4.63;4.13;;;15.70;1.00;;;;;;5115574;28;20469;-84
2022/05/07 06:07:49;;;;;;;5.90;5.30;;;15.80;99.90;;;;;;5116584;28;20447;-83
2022/05/07 06:10:15;;;;;;;5.77;4.80;;;15.80;99.90;;;;;;5114172;28;20440;-83
2022/05/07 06:12:43;;;;;;;5.50;5.00;;;16.00;99.90;;;;;;5110388;28;20478;-83
2022/05/07 06:15:12;;;;;;;3.63;3.43;;;16.00;99.90;;;;;;5109776;28;20474;-84
2022/05/07 06:17:38;;;;;;;4.60;4.10;;;16.00;99.90;;;;;;5108760;28;20440;-84
2022/05/07 06:20:07;;;;;;;5.70;4.70;;;16.00;99.90;;;;;;5109464;28;20440;-84
2022/05/07 06:22:33;;;;;;;5.23;4.73;;;16.10;99.90;;;;;;5110641;28;20447;-83
2022/05/07 06:27:45;;;;;;;4.10;3.80;;;16.10;99.90;;;;;;5118953;28;20442;-83
2022/05/07 06:30:13;;;;;;;4.63;4.23;;;16.20;99.90;;;;;;5118022;28;20446;-84
2022/05/07 06:32:41;;;;;;;4.13;3.83;;;16.30;99.90;;;;;;5114381;28;20486;-84
2022/05/07 06:35:09;;;;;;;5.13;4.57;;;16.40;99.90;;;;;;5112305;28;20490;-84
2022/05/07 06:37:37;;;;;;;4.50;3.67;;;16.40;99.90;;;;;;5110620;28;20447;-84
2022/05/07 06:40:06;;;;;;;7.20;4.60;;;16.50;99.90;;;;;;5100274;28;20483;-84
2022/05/07 06:42:34;;;;;;;4.23;3.87;;;16.60;99.90;;;;;;5103622;28;20471;-83
2022/05/07 06:45:01;;;;;;;4.80;4.00;;;16.90;1.00;;;;;;5114676;28;20781;-84
2022/05/07 06:47:28;;;;;;;6.30;4.47;;;16.90;99.90;;;;;;5104928;28;20447;-84
2022/05/07 06:49:55;;;;;;;4.73;4.30;;;17.10;99.90;;;;;;5107626;28;21002;-85
2022/05/07 06:52:21;;;;;;;5.57;4.00;;;17.30;1.00;;;;;;5107569;28;20447;-84
2022/05/07 06:54:48;;;;;;;3.97;3.60;;;17.50;99.90;;;;;;5108465;28;20454;-84
2022/05/07 06:57:15;;;;;;;6.20;4.20;;;17.50;99.90;;;;;;5107260;28;20467;-84
2022/05/07 06:59:42;;;;;;;3.70;3.40;;;17.60;1.00;;;;;;5104210;28;20831;-84
2022/05/07 07:02:10;;;;;;;4.30;3.83;;;17.80;1.00;;;;;;5100198;28;20447;-84
2022/05/07 07:04:36;;;;;;;5.00;3.60;;;17.80;19.00;;;;;;5100804;28;20926;-84
2022/05/07 07:07:06;;;;;;;4.40;4.00;;;17.70;99.90;;;;;;5112903;28;20470;-84
2022/05/07 07:09:33;;;;;;;7.17;4.20;;;17.70;1.00;;;;;;5105276;28;20444;-84
2022/05/07 07:11:59;;;;;;;4.07;3.50;;;17.70;1.00;;;;;;5109785;28;20458;-84
2022/05/07 07:14:26;;;;;;;3.90;3.60;;;17.70;99.90;;;;;;5110129;28;20479;-85
2022/05/07 07:16:52;;;;;;;4.07;3.53;;;18.00;21.90;;;;;;5120426;28;20443;-84
2022/05/07 07:19:20;;;;;;;3.97;3.67;;;18.10;1.00;;;;;;5121582;28;20435;-83
2022/05/07 07:21:49;;;;;;;6.00;4.37;;;18.20;99.90;;;;;;5121374;28;20428;-84
2022/05/07 07:24:18;;;;;;;4.53;4.10;;;;;;;;;;5121820;28;20420;-83
2022/05/07 07:26:44;;;;;;;4.30;3.33;;;18.20;99.90;;;;;;5131472;22;20515;-82
2022/05/07 07:29:11;;;;;;;3.30;3.00;;;18.10;99.90;;;;;;5105030;28;20447;-82
2022/05/07 07:31:38;;;;;;;5.30;4.27;;;18.10;99.90;;;;;;5105724;28;20948;-81
2022/05/07 07:34:04;;;;;;;3.50;3.30;;;18.10;1.00;;;;;;5107735;28;20515;-82
2022/05/07 07:36:32;;;;;;;3.60;3.30;;;18.10;99.90;;;;;;5114786;28;20460;-80
2022/05/07 07:38:59;;;;;;;4.50;3.47;;;18.10;99.90;;;;;;5114920;28;20444;-80
2022/05/07 07:41:26;;;;;;;3.80;3.13;;;18.10;1.00;;;;;;5115644;28;20448;-81
2022/05/07 07:43:53;;;;;;;5.30;3.53;;;18.10;1.00;;;;;;5114233;28;20462;-82
2022/05/07 07:49:06;;;;;;;3.50;3.20;;;18.80;1.00;;;;;;5110468;28;20426;-81
2022/05/07 07:51:34;;;;;;;11.67;3.87;;;18.70;99.90;;;;;;5116643;28;20432;-83
2022/05/07 07:54:00;;;;;;;4.00;3.30;;;18.80;1.00;;;;;;5108867;28;20502;-79
2022/05/07 07:56:27;;;;;;;5.37;3.60;;;18.90;1.00;;;;;;5108991;28;20460;-79
2022/05/07 07:58:54;;;;;;;2.70;2.50;;;18.90;1.00;;;;;;5115153;28;20460;-82
2022/05/07 08:01:21;;;;;;;3.53;3.30;;;;;;;;;;5111930;28;20466;-81
2022/05/07 08:03:47;;;;;;;3.73;3.10;;;18.90;1.00;;;;;;5113824;28;20458;-80
2022/05/07 08:06:14;;;;;;;4.00;3.70;;;19.10;99.90;;;;;;5114050;28;20461;-81
2022/05/07 08:11:42;;;;;;;4.00;3.60;;;;;;;;;;5115273;28;20407;-81
2022/05/07 08:14:09;;;;;;;3.77;3.20;;;19.10;99.90;;;;;;5115092;28;20483;-81
2022/05/07 08:16:36;;;;;;;6.60;3.57;;;19.00;1.00;;;;;;5114278;28;20464;-79
2022/05/07 08:19:04;;;;;;;6.73;3.20;;;19.10;99.90;;;;;;5113754;28;20444;-81
2022/05/07 08:21:30;;;;;;;3.83;3.20;;;19.00;1.00;;;;;;5115026;28;20998;-81
2022/05/07 08:23:59;;;;;;;5.10;3.50;;;19.20;1.00;;;;;;5111580;28;20497;-79
2022/05/07 08:26:26;;;;;;;7.27;4.63;;;18.90;1.00;;;;;;5113507;28;20503;-83
2022/05/07 08:28:52;;;;;;;4.40;4.00;;;19.40;1.00;;;;;;5111632;28;20446;-82
2022/05/07 08:31:21;;;;;;;5.03;4.53;;;19.50;1.00;;;;;;5111369;28;20448;-82
2022/05/07 08:33:48;;;;;;;7.70;5.33;;;19.60;1.00;;;;;;5113744;28;20483;-82
2022/05/07 08:36:16;;;;;;;6.93;5.10;;;19.70;1.00;;;;;;5110337;28;20467;-81
2022/05/07 08:38:43;;;;;;;6.77;4.83;;;20.10;1.00;;;;;;5111092;28;20432;-82
2022/05/07 08:41:12;;;;;;;7.50;5.77;;;20.30;1.00;;;;;;5113098;28;20444;-82
2022/05/07 08:43:41;;;;;;;10.23;5.43;;;20.00;1.00;;;;;;5114326;28;20470;-79
2022/05/07 08:46:10;;;;;;;5.00;4.47;;;20.10;1.00;;;;;;5111667;28;20444;-81
2022/05/07 08:48:39;;;;;;;5.07;4.00;;;20.20;1.00;;;;;;5109617;28;20595;-81
2022/05/07 08:51:06;;;;;;;6.50;5.13;;;20.20;1.00;;;;;;5113744;28;20452;-79
2022/05/07 08:53:33;;;;;;;9.00;4.40;;;;;;;;;;5112091;28;20537;-80
2022/05/07 08:56:00;;;;;;;5.87;4.63;;;20.50;1.00;;;;;;5112725;28;20464;-80
2022/05/07 08:58:28;;;;;;;7.77;4.50;;;20.60;1.00;;;;;;5109505;28;20448;-80
2022/05/07 09:00:55;;;;;;;6.97;3.77;;;20.80;1.00;;;;;;5108259;28;20444;-80
2022/05/07 09:03:21;;;;;;;9.13;5.50;;;20.80;1.00;;;;;;5112740;28;20432;-79
2022/05/07 09:05:48;;;;;;;6.13;4.10;;;20.90;3.00;;;;;;5111257;28;20482;-79
2022/05/07 09:08:15;;;;;;;4.13;3.70;;;20.70;6.90;;;;;;5112802;28;20466;-79
2022/05/07 09:10:42;;;;;;;5.20;4.70;;;20.80;7.60;;;;;;5111640;28;20441;-79
2022/05/07 09:13:14;;;;;;;6.30;5.40;;;20.70;21.20;;;;;;5116307;28;20451;-80
2022/05/07 09:15:53;;;;;;;5.40;4.90;;;20.30;23.80;;;;;;5112969;28;20464;-80
2022/05/07 09:18:21;;;;;;;4.97;4.57;;;20.10;14.60;;;;;;5115680;28;20443;-79
2022/05/07 09:21:15;;;;;;;6.93;4.47;;;20.30;22.30;;;;;;5114416;28;20452;-82
2022/05/07 09:23:43;;;;;;;5.30;4.70;;;20.30;22.10;;;;;;5112922;28;20784;-80
2022/05/07 09:26:09;;;;;;;8.43;4.67;;;20.40;43.70;;;;;;5110913;28;20464;-83
2022/05/07 09:28:38;;;;;;;5.70;4.73;;;;;;;;;;5107759;28;20440;-81
2022/05/07 09:31:06;;;;;;;5.50;4.23;;;20.40;52.30;;;;;;5108294;28;20467;-83
2022/05/07 09:33:33;;;;;;;6.37;3.80;;;20.40;53.60;;;;;;5108660;28;20510;-80
2022/05/07 09:36:10;;;;;;;4.70;4.20;;;20.40;40.00;;;;;;5104439;28;20468;-80
2022/05/07 09:38:37;;;;;;;5.33;4.43;;;20.50;64.60;;;;;;5107146;28;20427;-84
2022/05/07 09:41:04;;;;;;;6.07;4.90;;;20.40;52.00;;;;;;5111964;28;20504;-81
2022/05/07 09:43:31;;;;;;;4.93;4.00;;;20.20;52.10;;;;;;5112585;28;20999;-82
2022/05/07 09:45:58;;;;;;;8.03;4.57;;;20.20;54.20;;;;;;5113681;28;20448;-81
2022/05/07 09:48:26;;;;;;;6.27;4.20;;;20.30;43.20;;;;;;5110429;28;20424;-80
2022/05/07 09:50:54;;;;;;;12.00;9.10;;;20.40;61.60;;;;;;5113178;28;20445;-82
2022/05/07 09:58:52;;;;;;;5.07;4.07;;;21.00;99.90;;;;;;5115117;28;20415;-82
2022/05/07 10:01:32;;;;;;;5.77;4.30;;;21.70;99.90;;;;;;5105736;28;20448;-82
2022/05/07 10:04:14;;;;;;;9.83;7.20;;;21.90;99.90;;;;;;5101683;28;20427;-83
2022/05/07 10:06:50;;;;;;;5.80;4.27;;;21.30;99.90;;;;;;5103297;28;20589;-83
2022/05/07 10:09:28;;;;;;;13.87;7.90;;;21.40;99.90;;;;;;5102272;28;20452;-83
2022/05/07 10:11:57;;;;;;;21.57;15.90;;;21.30;99.90;;;;;;5106872;28;20450;-82
2022/05/07 10:14:27;;;;;;;5.83;4.33;;;21.20;99.90;;;;;;5100709;28;20533;-84
2022/05/07 10:16:58;;;;;;;4.13;3.73;;;21.50;99.90;;;;;;5101331;28;20571;-83
2022/05/07 10:19:35;;;;;;;4.50;3.43;;;21.20;99.90;;;;;;5101963;28;21004;-82
2022/05/07 10:22:03;;;;;;;4.80;4.40;;;21.70;99.90;;;;;;5101053;28;20464;-81
2022/05/07 10:24:29;;;;;;;4.70;4.27;;;21.60;99.90;;;;;;5101553;28;20531;-81
2022/05/07 10:26:56;;;;;;;4.13;3.43;;;21.60;99.90;;;;;;5102128;28;20480;-81
2022/05/07 10:29:26;;;;;;;5.17;4.67;;;21.50;99.90;;;;;;5106656;28;20535;-80
2022/05/07 10:32:02;;;;;;;3.20;3.00;;;21.50;99.90;;;;;;5098806;28;20947;-83
2022/05/07 10:34:29;;;;;;;4.03;3.53;;;21.60;99.90;;;;;;5100017;28;20823;-81
2022/05/07 10:37:04;;;;;;;5.20;4.20;;;21.80;99.90;;;;;;5102351;28;20468;-84
2022/05/07 10:39:32;;;;;;;3.80;3.50;;;21.90;99.90;;;;;;5101761;28;20812;-83
2022/05/07 10:42:00;;;;;;;3.37;2.93;;;21.90;99.90;;;;;;5101494;28;20854;-83
2022/05/07 10:44:31;;;;;;;4.50;4.00;;;21.80;99.90;;;;;;5106055;28;20443;-82
2022/05/07 10:47:08;;;;;;;3.80;3.50;;;21.50;99.90;;;;;;5108729;28;20914;-83
2022/05/07 10:49:34;;;;;;;4.50;4.10;;;21.30;99.90;;;;;;5105434;28;20447;-82
2022/05/07 10:52:05;;;;;;;5.20;4.13;;;21.10;99.90;;;;;;5104947;28;20466;-81
2022/05/07 10:54:32;;;;;;;6.50;4.60;;;21.10;99.90;;;;;;5105097;28;20497;-83
2022/05/07 10:56:59;;;;;;;6.20;3.93;;;21.10;99.90;;;;;;5102534;28;20489;-82
2022/05/07 10:59:27;;;;;;;10.33;4.73;;;21.20;99.90;;;;;;5101729;28;20443;-81
2022/05/07 11:02:04;;;;;;;5.30;4.80;;;21.60;99.90;;;;;;5101254;28;20444;-81
2022/05/07 11:04:31;;;;;;;5.60;4.97;;;;;;;;;;5099456;28;20427;-81
2022/05/07 11:06:58;;;;;;;6.83;4.00;;;21.20;99.90;;;;;;5098278;28;20471;-80
2022/05/07 11:09:27;;;;;;;4.43;3.43;;;21.10;99.90;;;;;;5099626;28;20448;-81
2022/05/07 11:11:55;;;;;;;6.03;3.60;;;21.20;99.90;;;;;;5101036;28;20454;-83
2022/05/07 11:14:24;;;;;;;6.27;4.37;;;21.20;99.90;;;;;;5103190;28;20482;-82
2022/05/07 11:16:51;;;;;;;3.70;3.00;;;21.00;99.90;;;;;;5103827;28;20463;-82
2022/05/07 11:19:25;;;;;;;5.30;4.07;;;21.10;99.90;;;;;;5107193;28;20447;-80
2022/05/07 11:21:52;;;;;;;4.73;4.33;;;21.20;99.90;;;;;;5111656;28;20822;-82
2022/05/07 11:24:20;;;;;;;5.37;4.87;;;21.20;99.90;;;;;;5106359;28;20450;-81
2022/05/07 11:26:52;;;;;;;5.70;3.43;;;21.00;99.90;;;;;;5106168;28;20475;-79
2022/05/07 11:29:19;;;;;;;5.10;4.57;;;21.00;99.90;;;;;;5118579;28;20645;-82
2022/05/07 11:31:55;;;;;;;5.30;4.03;;;21.10;99.90;;;;;;5115575;28;20439;-80
2022/05/07 11:34:30;;;;;;;6.67;4.30;;;21.30;99.90;;;;;;5110757;28;20530;-82
2022/05/07 11:36:56;;;;;;;6.53;4.50;;;21.70;99.90;;;;;;5105984;28;20495;-82
2022/05/07 11:39:24;;;;;;;8.13;4.90;;;21.80;99.90;;;;;;5103515;28;20497;-81
2022/05/07 11:41:55;;;;;;;5.13;4.50;;;21.90;99.90;;;;;;5104300;28;20852;-82
2022/05/07 11:47:21;;;;;;;4.27;3.93;;;22.30;99.90;;;;;;5106150;28;20490;-82
2022/05/07 11:49:59;;;;;;;5.20;4.00;;;22.50;99.90;;;;;;5113510;28;20537;-79
2022/05/07 11:52:28;;;;;;;7.30;4.67;;;22.50;99.90;;;;;;5117654;28;20834;-82
2022/05/07 11:54:55;;;;;;;4.97;3.80;;;22.30;99.90;;;;;;5114862;28;20486;-83
2022/05/07 11:57:31;;;;;;;5.73;4.30;;;22.40;99.90;;;;;;5116359;28;20491;-80
2022/05/07 11:59:58;;;;;;;6.53;3.97;;;22.00;99.90;;;;;;5114939;28;20435;-82
2022/05/07 12:02:25;;;;;;;5.37;4.10;;;22.20;99.90;;;;;;5117894;28;20428;-82
2022/05/07 12:04:57;;;;;;;4.40;3.93;;;21.90;99.90;;;;;;5117098;28;20479;-80
2022/05/07 12:07:24;;;;;;;4.80;4.40;;;21.90;99.90;;;;;;5107850;28;20464;-84
2022/05/07 12:09:50;;;;;;;4.57;4.13;;;22.00;99.90;;;;;;5110804;28;20452;-84
2022/05/07 12:12:17;;;;;;;7.63;5.40;;;22.00;99.90;;;;;;5105742;28;20444;-83
2022/05/07 12:14:45;;;;;;;6.87;4.77;;;22.00;99.90;;;;;;5105693;28;20476;-84
2022/05/07 12:19:56;;;;;;;7.33;5.40;;;21.80;99.90;;;;;;5104093;28;20400;-82
2022/05/07 12:30:38;;;;;;;5.90;4.00;;;22.40;99.90;;;;;;5104146;28;20453;-82
2022/05/07 12:33:06;;;;;;;4.57;3.53;;;22.40;99.90;;;;;;5104743;28;20439;-82
2022/05/07 12:35:33;;;;;;;6.80;4.27;;;22.50;99.90;;;;;;5105174;28;20537;-81
2022/05/07 12:38:00;;;;;;;5.50;4.53;;;22.50;99.90;;;;;;5105948;28;20497;-79
2022/05/07 12:40:27;;;;;;;5.00;4.60;;;;;;;;;;5109616;28;20444;-81
2022/05/07 12:42:54;;;;;;;4.33;3.83;;;21.80;99.90;;;;;;5111245;28;20455;-81
2022/05/07 12:45:21;;;;;;;4.07;3.37;;;22.20;99.90;;;;;;5104381;28;20436;-83
2022/05/07 12:47:49;;;;;;;4.17;3.77;;;22.20;99.90;;;;;;5102571;28;20448;-82
2022/05/07 12:50:15;;;;;;;3.87;3.47;;;22.40;99.90;;;;;;5102396;28;20443;-83
2022/05/07 12:52:42;;;;;;;4.40;4.00;;;22.60;99.90;;;;;;5104215;28;20459;-82
2022/05/07 12:55:09;;;;;;;5.73;4.37;;;22.40;99.90;;;;;;5101644;28;20483;-81
2022/05/07 12:57:36;;;;;;;3.87;3.47;;;22.50;99.90;;;;;;5101355;28;20444;-84
2022/05/07 13:00:04;;;;;;;5.80;3.50;;;22.20;99.90;;;;;;5100529;28;20455;-82
2022/05/07 13:02:31;;;;;;;5.13;3.40;;;22.30;99.90;;;;;;5100706;28;20874;-82
2022/05/07 13:04:59;;;;;;;4.30;4.00;;;22.50;99.90;;;;;;5100689;28;20440;-83
2022/05/07 13:07:25;;;;;;;4.40;4.10;;;22.40;99.90;;;;;;5101140;28;20468;-82
2022/05/07 13:09:52;;;;;;;9.87;5.10;;;;;;;;;;5103924;28;20444;-81
2022/05/07 13:12:20;;;;;;;4.40;4.10;;;22.40;99.90;;;;;;5100849;28;20447;-81
2022/05/07 13:14:47;;;;;;;5.40;4.90;;;22.40;99.90;;;;;;5099926;28;20491;-82
2022/05/07 13:17:15;;;;;;;6.00;4.93;;;;;;;;;;5101823;28;20464;-83
2022/05/07 13:19:59;;;;;;;5.93;4.60;;;21.90;99.90;;;;;;5217703;27;20576;-79
2022/05/07 13:22:26;;;;;;;8.17;4.67;;;21.80;99.90;;;;;;5216461;27;20453;-79
2022/05/07 13:24:52;;;;;;;5.23;4.70;;;21.50;99.90;;;;;;5212893;27;20443;-82
2022/05/07 13:27:19;;;;;;;5.50;5.00;;;21.60;99.90;;;;;;5204416;27;20520;-81
2022/05/07 13:29:45;;;;;;;6.40;4.77;;;21.50;99.90;;;;;;5202731;27;20447;-81
2022/05/07 13:32:12;;;;;;;6.73;4.30;;;21.50;99.90;;;;;;5168525;22;20492;-84
2022/05/07 13:34:39;;;;;;;6.60;4.73;;;;;;;;;;5105251;28;20439;-84
2022/05/07 13:37:07;;;;;;;4.50;3.90;;;21.70;99.90;;;;;;5103230;28;20440;-84
2022/05/07 13:39:34;;;;;;;7.83;5.80;;;;;;;;;;5102570;28;20484;-85
2022/05/07 13:42:01;;;;;;;7.57;5.30;;;;;;;;;;5105176;28;20482;-84
2022/05/07 13:44:28;;;;;;;6.80;5.30;;;22.10;99.90;;;;;;5107683;28;20430;-85
2022/05/07 13:46:55;;;;;;;5.03;4.53;;;;;;;;;;5107449;28;20444;-85
2022/05/07 13:49:21;;;;;;;6.63;5.90;;;21.70;99.90;;;;;;5103724;28;20535;-84